Alpine Light — V7UJ6 — position and weather

sailwx.info

Track history (hours):
 
Tides and Currents Weather Stations Pressure Air Temp Water Temp Dewpoint Dewpoint Depression Visibility Wind Speed Wind Dir Waves Ship Positions

Alpine Light

Last reported at 2016-Feb-08 13:31 UTC. Time now 2016-Feb-08 14:19 UTC.
Position N 01°15' E 103°48'.

Length 183 m; draft 11.6 m.

Type: Tanker. MMSI: 538003962.

Date/timePositionNaut miles runAvg speedWind from/ knotsBaromVisibWave heightAir tempDewpointWater temp
2016-Feb-08 13:31N 01°15' E 103°48'0 0.0
2016-Feb-08 12:31N 01°15' E 103°48'0 0.0
2016-Feb-08 11:25N 01°15' E 103°48'0 0.2
2016-Feb-08 10:31N 01°15' E 103°48'0 0.0
2016-Feb-08 09:19N 01°15' E 103°48'0 0.0
2016-Feb-08 08:13N 01°15' E 103°48'0 0.0
2016-Feb-08 07:31N 01°15' E 103°48'0 0.0
2016-Feb-08 06:31N 01°15' E 103°48'0 0.0
2016-Feb-08 05:31N 01°15' E 103°48'0 0.0
2016-Feb-08 04:31N 01°15' E 103°48'0 0.1
2016-Feb-08 03:31N 01°15' E 103°48'0 0.1
2016-Feb-08 02:19N 01°15' E 103°48'0 0.0
2016-Feb-08 01:31N 01°15' E 103°48'0 0.1
2016-Feb-08 00:31N 01°15' E 103°48'0 0.1
2016-Feb-07 23:28N 01°15' E 103°48'0 0.0
2016-Feb-07 22:25N 01°15' E 103°48'0 0.0
2016-Feb-07 21:31N 01°15' E 103°48'0 0.0
2016-Feb-07 20:31N 01°15' E 103°48'0 0.1
2016-Feb-07 19:31N 01°15' E 103°48'0 0.0
2016-Feb-07 18:31N 01°15' E 103°48'0 0.2
2016-Feb-07 17:31N 01°15' E 103°48'0 0.1
2016-Feb-07 16:19N 01°15' E 103°48'0 0.1
2016-Feb-07 15:31N 01°15' E 103°48'0 0.0
2016-Feb-07 14:31N 01°15' E 103°48'0 0.1
2016-Feb-07 13:31N 01°15' E 103°48'0 0.0
2016-Feb-07 12:31N 01°15' E 103°48'0 0.0
2016-Feb-07 11:28N 01°15' E 103°48'0 0.0
2016-Feb-07 10:31N 01°15' E 103°48'1 1.4
2016-Feb-07 09:33N 01°15' E 103°47'7 7.0
2016-Feb-07 08:33N 01°13' E 103°40'5 2.3
2016-Feb-07 06:30N 01°18' E 103°42'0 0.0
2016-Feb-07 05:27N 01°18' E 103°42'0 0.0
2016-Feb-07 04:21N 01°18' E 103°42'0 0.0
2016-Feb-07 03:09N 01°18' E 103°42'0 0.0
2016-Feb-07 02:27N 01°18' E 103°42'0 0.0
2016-Feb-07 01:27N 01°18' E 103°42'0 0.0
2016-Feb-07 00:21N 01°18' E 103°42'0 0.0
2016-Feb-06 23:21N 01°18' E 103°42'0 0.0
2016-Feb-06 22:15N 01°18' E 103°42'0 0.0
2016-Feb-06 21:33N 01°18' E 103°42'0 0.0
2016-Feb-06 19:24N 01°18' E 103°42'0 0.0
2016-Feb-06 10:33N 01°18' E 103°42'4 3.7
2016-Feb-06 09:27N 01°14' E 103°40'7 7.5
2016-Feb-06 08:33N 01°15' E 103°46'3 2.8
2016-Feb-06 07:28N 01°13' E 103°48'0 0.0
2016-Feb-06 06:10N 01°13' E 103°48'0 0.0
2016-Feb-06 05:28N 01°13' E 103°48'0 0.0
2016-Feb-06 04:31N 01°13' E 103°48'0 0.1
2016-Feb-06 03:28N 01°13' E 103°48'0 0.1
2016-Feb-06 02:28N 01°13' E 103°48'0 0.0
2016-Feb-06 01:28N 01°13' E 103°48'0 0.1
2016-Feb-06 00:28N 01°13' E 103°48'0 0.1
2016-Feb-05 23:28N 01°13' E 103°48'0 0.0
2016-Feb-05 22:31N 01°13' E 103°48'0 0.1
2016-Feb-05 21:28N 01°13' E 103°48'0 0.0
2016-Feb-05 20:25N 01°13' E 103°48'0 0.0
2016-Feb-05 19:22N 01°13' E 103°48'0 0.0
2016-Feb-05 18:31N 01°13' E 103°48'0 0.1
2016-Feb-05 17:28N 01°13' E 103°48'0 0.1
2016-Feb-05 16:28N 01°13' E 103°48'0 0.5
2016-Feb-05 15:33N 01°13' E 103°48'0 0.0
2016-Feb-05 14:33N 01°13' E 103°48'0 0.1
2016-Feb-05 13:33N 01°13' E 103°48'0 0.3
2016-Feb-05 12:21N 01°13' E 103°48'0 0.1
2016-Feb-05 11:27N 01°13' E 103°48'0 0.1
2016-Feb-05 10:33N 01°13' E 103°48'0 0.1
2016-Feb-05 09:33N 01°13' E 103°48'0 0.0
2016-Feb-05 07:21N 01°13' E 103°48'0 0.0
2016-Feb-05 06:33N 01°13' E 103°48'0 0.0
2016-Feb-05 05:33N 01°13' E 103°48'0 0.0
2016-Feb-05 04:33N 01°13' E 103°48'0 0.0
2016-Feb-05 03:21N 01°13' E 103°48'0 0.1
2016-Feb-05 02:33N 01°13' E 103°48'0 0.1
2016-Feb-05 00:33N 01°13' E 103°48'0 0.1
2016-Feb-04 23:27N 01°13' E 103°48'0 0.1
2016-Feb-04 22:27N 01°13' E 103°48'0 0.1
2016-Feb-04 21:27N 01°13' E 103°48'0 0.1
2016-Feb-04 20:33N 01°13' E 103°48'0 0.1
2016-Feb-04 19:33N 01°13' E 103°48'0 0.0
2016-Feb-04 18:33N 01°13' E 103°48'0 0.0
2016-Feb-04 17:21N 01°13' E 103°48'0 0.1
2016-Feb-04 16:33N 01°13' E 103°48'0 0.0
2016-Feb-04 15:33N 01°13' E 103°48'0 0.1
2016-Feb-04 14:33N 01°13' E 103°48'0 0.1
2016-Feb-04 13:33N 01°13' E 103°48'0 0.0
2016-Feb-04 12:14N 01°13' E 103°48'0 0.0
2016-Feb-04 11:33N 01°13' E 103°48'0 0.0
2016-Feb-04 10:33N 01°13' E 103°48'0 0.0
2016-Feb-04 09:33N 01°13' E 103°48'0 0.1
2016-Feb-04 08:20N 01°13' E 103°48'0 0.0
2016-Feb-04 07:26N 01°13' E 103°48'0 0.1
2016-Feb-04 06:33N 01°13' E 103°48'0 0.1
2016-Feb-04 05:29N 01°13' E 103°48'0 0.0
2016-Feb-04 04:10N 01°13' E 103°48'0 0.0
2016-Feb-04 03:28N 01°13' E 103°48'0 0.1
2016-Feb-04 02:28N 01°13' E 103°48'0 0.1
2016-Feb-04 01:28N 01°13' E 103°48'0 0.0
2016-Feb-04 00:25N 01°13' E 103°48'0 0.1
2016-Feb-03 23:33N 01°13' E 103°48'0 0.1
2016-Feb-03 22:33N 01°13' E 103°48'0 0.1
2016-Feb-03 21:33N 01°13' E 103°48'0 0.1
2016-Feb-03 20:33N 01°13' E 103°48'0 0.1
2016-Feb-03 19:33N 01°13' E 103°48'0 0.1
2016-Feb-03 18:33N 01°13' E 103°48'3 3.4
2016-Feb-03 17:33N 01°15' E 103°45'7 7.2
2016-Feb-03 16:33N 01°12' E 103°38'  
Track history (hours):
 
Tides and Currents Weather Stations Pressure Air Temp Water Temp Dewpoint Dewpoint Depression Visibility Wind Speed Wind Dir Waves Ship Positions

Alpine Light

Last reported at 2016-Feb-08 13:31 UTC. Time now 2016-Feb-08 14:19 UTC.
Position N 01°15' E 103°48'.

Length 183 m; draft 11.6 m.

Type: Tanker. MMSI: 538003962.

Date/timePositionNaut miles runAvg speedWind from/ knotsBaromVisibWave heightAir tempDewpointWater temp
2016-Feb-08 13:31N 01°15' E 103°48'0 0.0
2016-Feb-08 12:31N 01°15' E 103°48'0 0.0
2016-Feb-08 11:25N 01°15' E 103°48'0 0.2
2016-Feb-08 10:31N 01°15' E 103°48'0 0.0
2016-Feb-08 09:19N 01°15' E 103°48'0 0.0
2016-Feb-08 08:13N 01°15' E 103°48'0 0.0
2016-Feb-08 07:31N 01°15' E 103°48'0 0.0
2016-Feb-08 06:31N 01°15' E 103°48'0 0.0
2016-Feb-08 05:31N 01°15' E 103°48'0 0.0
2016-Feb-08 04:31N 01°15' E 103°48'0 0.1
2016-Feb-08 03:31N 01°15' E 103°48'0 0.1
2016-Feb-08 02:19N 01°15' E 103°48'0 0.0
2016-Feb-08 01:31N 01°15' E 103°48'0 0.1
2016-Feb-08 00:31N 01°15' E 103°48'0 0.1
2016-Feb-07 23:28N 01°15' E 103°48'0 0.0
2016-Feb-07 22:25N 01°15' E 103°48'0 0.0
2016-Feb-07 21:31N 01°15' E 103°48'0 0.0
2016-Feb-07 20:31N 01°15' E 103°48'0 0.1
2016-Feb-07 19:31N 01°15' E 103°48'0 0.0
2016-Feb-07 18:31N 01°15' E 103°48'0 0.2
2016-Feb-07 17:31N 01°15' E 103°48'0 0.1
2016-Feb-07 16:19N 01°15' E 103°48'0 0.1
2016-Feb-07 15:31N 01°15' E 103°48'0 0.0
2016-Feb-07 14:31N 01°15' E 103°48'0 0.1
2016-Feb-07 13:31N 01°15' E 103°48'0 0.0
2016-Feb-07 12:31N 01°15' E 103°48'0 0.0
2016-Feb-07 11:28N 01°15' E 103°48'0 0.0
2016-Feb-07 10:31N 01°15' E 103°48'1 1.4
2016-Feb-07 09:33N 01°15' E 103°47'7 7.0
2016-Feb-07 08:33N 01°13' E 103°40'5 2.3
2016-Feb-07 06:30N 01°18' E 103°42'0 0.0
2016-Feb-07 05:27N 01°18' E 103°42'0 0.0
2016-Feb-07 04:21N 01°18' E 103°42'0 0.0
2016-Feb-07 03:09N 01°18' E 103°42'0 0.0
2016-Feb-07 02:27N 01°18' E 103°42'0 0.0
2016-Feb-07 01:27N 01°18' E 103°42'0 0.0
2016-Feb-07 00:21N 01°18' E 103°42'0 0.0
2016-Feb-06 23:21N 01°18' E 103°42'0 0.0
2016-Feb-06 22:15N 01°18' E 103°42'0 0.0
2016-Feb-06 21:33N 01°18' E 103°42'0 0.0
2016-Feb-06 19:24N 01°18' E 103°42'0 0.0
2016-Feb-06 10:33N 01°18' E 103°42'4 3.7
2016-Feb-06 09:27N 01°14' E 103°40'7 7.5
2016-Feb-06 08:33N 01°15' E 103°46'3 2.8
2016-Feb-06 07:28N 01°13' E 103°48'0 0.0
2016-Feb-06 06:10N 01°13' E 103°48'0 0.0
2016-Feb-06 05:28N 01°13' E 103°48'0 0.0
2016-Feb-06 04:31N 01°13' E 103°48'0 0.1
2016-Feb-06 03:28N 01°13' E 103°48'0 0.1
2016-Feb-06 02:28N 01°13' E 103°48'0 0.0
2016-Feb-06 01:28N 01°13' E 103°48'0 0.1
2016-Feb-06 00:28N 01°13' E 103°48'0 0.1
2016-Feb-05 23:28N 01°13' E 103°48'0 0.0
2016-Feb-05 22:31N 01°13' E 103°48'0 0.1
2016-Feb-05 21:28N 01°13' E 103°48'0 0.0
2016-Feb-05 20:25N 01°13' E 103°48'0 0.0
2016-Feb-05 19:22N 01°13' E 103°48'0 0.0
2016-Feb-05 18:31N 01°13' E 103°48'0 0.1
2016-Feb-05 17:28N 01°13' E 103°48'0 0.1
2016-Feb-05 16:28N 01°13' E 103°48'0 0.5
2016-Feb-05 15:33N 01°13' E 103°48'0 0.0
2016-Feb-05 14:33N 01°13' E 103°48'0 0.1
2016-Feb-05 13:33N 01°13' E 103°48'0 0.3
2016-Feb-05 12:21N 01°13' E 103°48'0 0.1
2016-Feb-05 11:27N 01°13' E 103°48'0 0.1
2016-Feb-05 10:33N 01°13' E 103°48'0 0.1
2016-Feb-05 09:33N 01°13' E 103°48'0 0.0
2016-Feb-05 07:21N 01°13' E 103°48'0 0.0
2016-Feb-05 06:33N 01°13' E 103°48'0 0.0
2016-Feb-05 05:33N 01°13' E 103°48'0 0.0
2016-Feb-05 04:33N 01°13' E 103°48'0 0.0
2016-Feb-05 03:21N 01°13' E 103°48'0 0.1
2016-Feb-05 02:33N 01°13' E 103°48'0 0.1
2016-Feb-05 00:33N 01°13' E 103°48'0 0.1
2016-Feb-04 23:27N 01°13' E 103°48'0 0.1
2016-Feb-04 22:27N 01°13' E 103°48'0 0.1
2016-Feb-04 21:27N 01°13' E 103°48'0 0.1
2016-Feb-04 20:33N 01°13' E 103°48'0 0.1
2016-Feb-04 19:33N 01°13' E 103°48'0 0.0
2016-Feb-04 18:33N 01°13' E 103°48'0 0.0
2016-Feb-04 17:21N 01°13' E 103°48'0 0.1
2016-Feb-04 16:33N 01°13' E 103°48'0 0.0
2016-Feb-04 15:33N 01°13' E 103°48'0 0.1
2016-Feb-04 14:33N 01°13' E 103°48'0 0.1
2016-Feb-04 13:33N 01°13' E 103°48'0 0.0
2016-Feb-04 12:14N 01°13' E 103°48'0 0.0
2016-Feb-04 11:33N 01°13' E 103°48'0 0.0
2016-Feb-04 10:33N 01°13' E 103°48'0 0.0
2016-Feb-04 09:33N 01°13' E 103°48'0 0.1
2016-Feb-04 08:20N 01°13' E 103°48'0 0.0
2016-Feb-04 07:26N 01°13' E 103°48'0 0.1
2016-Feb-04 06:33N 01°13' E 103°48'0 0.1
2016-Feb-04 05:29N 01°13' E 103°48'0 0.0
2016-Feb-04 04:10N 01°13' E 103°48'0 0.0
2016-Feb-04 03:28N 01°13' E 103°48'0 0.1
2016-Feb-04 02:28N 01°13' E 103°48'0 0.1
2016-Feb-04 01:28N 01°13' E 103°48'0 0.0
2016-Feb-04 00:25N 01°13' E 103°48'0 0.1
2016-Feb-03 23:33N 01°13' E 103°48'0 0.1
2016-Feb-03 22:33N 01°13' E 103°48'0 0.1
2016-Feb-03 21:33N 01°13' E 103°48'0 0.1
2016-Feb-03 20:33N 01°13' E 103°48'0 0.1
2016-Feb-03 19:33N 01°13' E 103°48'0 0.1
2016-Feb-03 18:33N 01°13' E 103°48'3 3.4
2016-Feb-03 17:33N 01°15' E 103°45'7 7.2
2016-Feb-03 16:33N 01°12' E 103°38'  

Dump ship's entire track history